createdAt,value
2022-07-30T04:00:57.634Z,3.20
2022-07-30T04:03:44.678Z,3.40
2022-07-30T04:06:31.932Z,3.73
2022-07-30T04:09:19.469Z,3.40
2022-07-30T04:12:10.103Z,2.93
2022-07-30T04:15:02.647Z,3.50
2022-07-30T04:18:25.480Z,3.20
2022-07-30T04:21:16.053Z,3.00
2022-07-30T04:24:07.781Z,3.33
2022-07-30T04:26:56.680Z,3.57
2022-07-30T04:29:44.504Z,3.27
2022-07-30T04:32:32.174Z,3.57
2022-07-30T04:35:51.216Z,3.80
2022-07-30T04:38:35.526Z,3.80
2022-07-30T04:45:53.040Z,3.00
2022-07-30T04:48:40.147Z,3.73
2022-07-30T04:51:35.507Z,3.30
2022-07-30T04:54:26.905Z,3.43
2022-07-30T04:57:16.700Z,3.70
2022-07-30T05:00:03.711Z,3.23
2022-07-30T05:02:52.802Z,3.60
2022-07-30T05:05:42.510Z,3.37
2022-07-30T05:08:31.313Z,3.57
2022-07-30T05:11:18.862Z,3.97
2022-07-30T05:14:05.669Z,3.33
2022-07-30T05:16:53.181Z,4.23
2022-07-30T05:19:40.278Z,4.07
2022-07-30T05:22:30.210Z,4.07
2022-07-30T05:25:18.935Z,4.07
2022-07-30T05:29:06.958Z,4.30
2022-07-30T05:31:54.959Z,4.67
2022-07-30T05:35:01.800Z,5.13
2022-07-30T05:37:48.906Z,4.30
2022-07-30T05:40:37.621Z,5.07
2022-07-30T05:43:24.631Z,4.97
2022-07-30T05:46:12.919Z,5.10
2022-07-30T05:49:00.273Z,5.83
2022-07-30T05:51:47.790Z,4.80
2022-07-30T05:54:37.255Z,4.87
2022-07-30T05:57:26.126Z,5.10
2022-07-30T06:00:14.348Z,4.67
2022-07-30T06:03:01.274Z,4.60
2022-07-30T06:05:50.579Z,5.10
2022-07-30T06:08:38.047Z,4.40
2022-07-30T06:11:27.399Z,4.50
2022-07-30T06:14:15.840Z,5.23
2022-07-30T06:17:03.577Z,4.97
2022-07-30T06:19:51.458Z,4.20
2022-07-30T06:22:38.278Z,4.30
2022-07-30T06:25:25.599Z,4.03
2022-07-30T06:28:35.930Z,3.87
2022-07-30T06:31:22.156Z,4.47
2022-07-30T06:34:09.255Z,3.70
2022-07-30T06:36:56.065Z,3.53
2022-07-30T06:39:53.699Z,3.00
2022-07-30T06:42:45.295Z,2.90
2022-07-30T06:45:32.025Z,2.80
2022-07-30T06:48:20.914Z,2.55
2022-07-30T06:51:08.031Z,2.55
2022-07-30T06:53:55.108Z,2.58
2022-07-30T06:56:42.193Z,2.40
2022-07-30T06:59:29.321Z,2.22
2022-07-30T07:02:18.928Z,2.40
2022-07-30T07:05:08.894Z,2.28
2022-07-30T07:07:59.476Z,2.40
2022-07-30T07:10:47.145Z,2.17
2022-07-30T07:13:34.191Z,2.20
2022-07-30T07:16:25.607Z,2.60
2022-07-30T07:19:13.437Z,2.20
2022-07-30T07:22:02.564Z,2.30
2022-07-30T07:24:49.551Z,2.22
2022-07-30T07:27:37.842Z,2.10
2022-07-30T07:30:25.206Z,1.83
2022-07-30T07:33:13.269Z,2.08
2022-07-30T07:36:02.831Z,2.00
2022-07-30T07:38:52.081Z,2.25
2022-07-30T07:41:48.530Z,2.38
2022-07-30T07:44:36.285Z,2.28
2022-07-30T07:47:23.832Z,2.10
2022-07-30T07:50:11.361Z,2.25
2022-07-30T07:52:58.906Z,2.40
2022-07-30T07:55:47.933Z,1.77
2022-07-30T07:58:34.618Z,2.60
2022-07-30T08:01:25.499Z,2.20
2022-07-30T08:04:18.155Z,2.30
2022-07-30T08:07:05.549Z,2.60
2022-07-30T08:09:52.784Z,2.60
2022-07-30T08:12:42.575Z,2.20
2022-07-30T08:15:29.677Z,2.20
2022-07-30T08:18:16.913Z,2.13
2022-07-30T08:24:23.959Z,2.40
2022-07-30T08:27:19.496Z,2.30
2022-07-30T08:30:11.716Z,1.95
2022-07-30T08:32:59.181Z,1.85
2022-07-30T08:35:48.638Z,1.80
2022-07-30T08:38:42.947Z,1.75
2022-07-30T08:41:30.625Z,2.08
2022-07-30T08:44:21.897Z,2.20
2022-07-30T08:47:13.240Z,2.30
2022-07-30T08:50:04.712Z,2.17
2022-07-30T08:52:55.799Z,1.80
2022-07-30T08:55:44.939Z,1.90
2022-07-30T08:58:33.985Z,1.83
2022-07-30T09:01:22.154Z,1.90
2022-07-30T09:04:11.031Z,1.77
2022-07-30T09:06:58.539Z,1.90
2022-07-30T09:09:46.088Z,1.60
2022-07-30T09:12:39.394Z,1.70
2022-07-30T09:15:26.787Z,2.25
2022-07-30T09:18:15.491Z,2.30
2022-07-30T09:21:16.599Z,1.67
2022-07-30T09:24:05.398Z,1.80
2022-07-30T09:26:59.591Z,1.73
2022-07-30T09:29:57.605Z,1.88
2022-07-30T09:32:52.251Z,2.05
2022-07-30T09:35:39.580Z,1.30
2022-07-30T09:38:28.131Z,1.60
2022-07-30T09:41:36.182Z,1.70
2022-07-30T09:44:27.742Z,1.80
2022-07-30T09:47:32.084Z,1.92
2022-07-30T09:50:30.330Z,1.73
2022-07-30T09:53:35.537Z,1.80
2022-07-30T09:56:27.289Z,1.38
2022-07-30T10:02:39.992Z,1.40
2022-07-30T10:05:28.353Z,1.67
2022-07-30T10:08:18.875Z,1.80
2022-07-30T10:11:09.702Z,1.27
2022-07-30T10:13:59.208Z,1.33
2022-07-30T10:16:47.409Z,1.20
2022-07-30T10:19:39.934Z,1.25
2022-07-30T10:22:29.421Z,1.40
2022-07-30T10:25:20.927Z,1.50
2022-07-30T10:28:12.294Z,1.63
2022-07-30T10:31:00.815Z,1.33
2022-07-30T10:33:54.588Z,1.67
2022-07-30T10:36:44.505Z,1.42
2022-07-30T10:39:36.812Z,1.38
2022-07-30T10:42:36.002Z,1.83
2022-07-30T10:45:36.021Z,1.48
2022-07-30T10:48:35.233Z,1.10
2022-07-30T10:51:25.417Z,1.77
2022-07-30T10:54:42.290Z,1.52
2022-07-30T10:57:32.855Z,1.60
2022-07-30T11:00:31.103Z,1.50
2022-07-30T11:03:22.058Z,2.13
2022-07-30T11:06:29.417Z,1.40
2022-07-30T11:09:41.087Z,1.52
2022-07-30T11:12:57.102Z,1.30
2022-07-30T11:15:57.684Z,1.17
2022-07-30T11:19:56.204Z,1.60
2022-07-30T11:22:26.993Z,1.42
2022-07-30T11:25:51.863Z,1.52
2022-07-30T11:28:44.258Z,1.40
2022-07-30T11:31:56.558Z,1.70
2022-07-30T11:34:42.306Z,1.50
2022-07-30T11:37:32.616Z,1.65
2022-07-30T11:40:26.385Z,1.50
2022-07-30T11:43:19.566Z,1.55
2022-07-30T11:46:10.331Z,1.60
2022-07-30T11:49:00.731Z,1.58
2022-07-30T11:51:51.184Z,1.85
2022-07-30T11:54:52.857Z,1.55
2022-07-30T11:57:44.300Z,1.45
2022-07-30T12:00:40.541Z,1.50
2022-07-30T12:03:29.990Z,1.60
2022-07-30T12:06:19.973Z,1.80
2022-07-30T12:09:07.301Z,1.75
2022-07-30T12:11:57.653Z,1.65
2022-07-30T12:14:44.375Z,1.60
2022-07-30T12:17:42.715Z,1.88
2022-07-30T12:20:31.710Z,1.70
2022-07-30T12:23:21.898Z,1.67
2022-07-30T12:26:08.900Z,1.60
2022-07-30T12:28:57.324Z,1.63
2022-07-30T12:31:46.283Z,1.50
2022-07-30T12:34:33.931Z,1.80
2022-07-30T12:37:20.830Z,2.03
2022-07-30T12:40:14.999Z,1.92
2022-07-30T12:43:02.661Z,1.88
2022-07-30T12:45:51.964Z,1.98
2022-07-30T12:48:51.123Z,1.38
2022-07-30T12:51:52.058Z,1.60
2022-07-30T12:54:39.524Z,2.10
2022-07-30T12:57:28.362Z,1.83
2022-07-30T13:00:16.455Z,1.77
2022-07-30T13:03:03.590Z,1.80
2022-07-30T13:05:55.664Z,2.08
2022-07-30T13:08:54.201Z,1.70
2022-07-30T13:11:49.134Z,1.85
2022-07-30T13:14:37.908Z,1.90
2022-07-30T13:17:24.954Z,1.75
2022-07-30T13:20:14.067Z,1.80
2022-07-30T13:23:02.110Z,1.85
2022-07-30T13:25:49.156Z,1.60
2022-07-30T13:28:37.308Z,2.10
2022-07-30T13:31:26.753Z,1.80
2022-07-30T13:34:14.385Z,1.75
2022-07-30T13:37:01.918Z,1.60
2022-07-30T13:39:49.036Z,1.80
2022-07-30T13:42:36.479Z,1.90
2022-07-30T13:45:23.357Z,2.22
2022-07-30T13:48:11.924Z,2.15
2022-07-30T13:50:58.676Z,1.90
2022-07-30T13:53:45.874Z,1.90
2022-07-30T13:56:32.755Z,1.98
2022-07-30T13:59:20.131Z,2.10
2022-07-30T14:02:07.083Z,1.88
2022-07-30T14:04:55.670Z,2.00
2022-07-30T14:07:42.748Z,1.85
2022-07-30T14:10:29.893Z,1.88
2022-07-30T14:13:21.273Z,1.70
2022-07-30T14:16:28.348Z,1.80
2022-07-30T14:19:23.458Z,1.55
2022-07-30T14:22:13.425Z,1.40
2022-07-30T14:25:01.388Z,1.73
2022-07-30T14:27:48.809Z,1.58
2022-07-30T14:30:36.459Z,1.48
2022-07-30T14:33:23.714Z,1.58
2022-07-30T14:36:11.351Z,1.80
2022-07-30T14:39:00.310Z,1.70
2022-07-30T14:41:47.121Z,1.77
2022-07-30T14:44:34.362Z,1.60
2022-07-30T14:47:22.380Z,1.77
2022-07-30T14:50:09.794Z,1.63
2022-07-30T14:52:56.784Z,1.60
2022-07-30T14:55:45.623Z,1.77
2022-07-30T14:58:32.660Z,1.90
2022-07-30T15:01:21.903Z,1.83
2022-07-30T15:04:10.997Z,1.60
2022-07-30T15:06:58.052Z,1.73
2022-07-30T15:09:45.053Z,1.48
2022-07-30T15:12:33.494Z,1.60
2022-07-30T15:15:20.906Z,1.90
2022-07-30T15:18:10.887Z,1.73
2022-07-30T15:20:58.726Z,1.48
2022-07-30T15:23:45.494Z,1.90
2022-07-30T15:26:32.902Z,1.58
2022-07-30T15:29:21.221Z,1.90
2022-07-30T15:32:09.074Z,1.90
2022-07-30T15:34:55.869Z,1.35
2022-07-30T15:37:42.745Z,1.95
2022-07-30T15:40:29.825Z,1.30
2022-07-30T15:43:16.677Z,1.77
2022-07-30T15:46:05.337Z,1.60
2022-07-30T15:48:52.440Z,1.85
2022-07-30T15:51:47.604Z,1.60
2022-07-30T15:54:35.300Z,1.60
2022-07-30T15:57:22.263Z,1.80
2022-07-30T16:00:10.617Z,1.98
2022-07-30T16:02:59.781Z,1.70
2022-07-30T16:05:51.673Z,1.52
2022-07-30T16:08:40.093Z,1.73
2022-07-30T16:11:27.834Z,1.88
2022-07-30T16:14:20.428Z,1.55
2022-07-30T16:17:11.799Z,1.95
2022-07-30T16:20:03.479Z,1.40
2022-07-30T16:22:50.388Z,1.70
2022-07-30T16:25:37.526Z,1.50
2022-07-30T16:28:24.485Z,1.45
2022-07-30T16:31:11.559Z,1.27
2022-07-30T16:34:01.983Z,1.75
2022-07-30T16:36:50.577Z,1.60
2022-07-30T16:39:37.804Z,1.65
2022-07-30T16:42:24.759Z,1.60
2022-07-30T16:45:12.463Z,1.40
2022-07-30T16:47:59.756Z,1.30
2022-07-30T16:50:47.040Z,1.50
2022-07-30T16:53:35.648Z,1.40
2022-07-30T16:56:22.761Z,1.40
2022-07-30T16:59:13.656Z,1.60
2022-07-30T17:02:02.182Z,1.45
2022-07-30T17:04:49.478Z,1.55
2022-07-30T17:07:36.245Z,1.30
2022-07-30T17:10:25.876Z,1.38
2022-07-30T17:13:14.635Z,1.52
2022-07-30T17:16:01.656Z,1.45
2022-07-30T17:18:48.888Z,1.55
2022-07-30T17:21:35.757Z,1.40
2022-07-30T17:24:23.115Z,1.40
2022-07-30T17:27:13.651Z,1.70
2022-07-30T17:30:00.632Z,1.60
2022-07-30T17:32:47.620Z,1.33
2022-07-30T17:35:35.428Z,1.40
2022-07-30T17:38:22.569Z,1.70
2022-07-30T17:41:13.311Z,1.85
2022-07-30T17:44:05.125Z,1.40
2022-07-30T17:46:51.969Z,1.40
2022-07-30T17:49:39.831Z,1.90
2022-07-30T17:52:27.421Z,1.70
2022-07-30T17:55:14.621Z,1.90
2022-07-30T17:58:02.278Z,1.88
2022-07-30T18:00:50.888Z,1.63
2022-07-30T18:03:37.688Z,1.63
2022-07-30T18:06:32.393Z,1.83
2022-07-30T18:09:19.485Z,1.90
2022-07-30T18:12:07.145Z,1.98
2022-07-30T18:14:54.030Z,1.50
2022-07-30T18:17:42.230Z,1.60
2022-07-30T18:20:30.908Z,1.50
2022-07-30T18:23:19.277Z,1.67
2022-07-30T18:26:07.127Z,1.75
2022-07-30T18:28:54.324Z,1.40
2022-07-30T18:31:41.888Z,1.92
2022-07-30T18:34:30.347Z,1.63
2022-07-30T18:37:18.189Z,1.50
2022-07-30T18:40:05.570Z,1.73
2022-07-30T18:42:52.690Z,1.63
2022-07-30T18:45:40.135Z,1.85
2022-07-30T18:48:27.046Z,1.70
2022-07-30T18:51:15.676Z,1.90
2022-07-30T18:54:02.615Z,1.75
2022-07-30T18:56:49.757Z,1.75
2022-07-30T18:59:37.095Z,1.80
2022-07-30T19:02:25.747Z,1.60
2022-07-30T19:05:13.152Z,1.75
2022-07-30T19:08:01.791Z,1.77
2022-07-30T19:10:48.724Z,1.80
2022-07-30T19:13:37.661Z,1.60
2022-07-30T19:16:25.154Z,1.70
2022-07-30T19:19:13.759Z,1.63
2022-07-30T19:22:00.919Z,1.88
2022-07-30T19:24:50.030Z,1.75
2022-07-30T19:27:37.452Z,1.67
2022-07-30T19:30:24.575Z,1.70
2022-07-30T19:33:15.596Z,1.50
2022-07-30T19:36:05.830Z,2.03
2022-07-30T19:38:53.221Z,1.83
2022-07-30T19:41:46.575Z,1.92
2022-07-30T19:44:40.605Z,1.90
2022-07-30T19:47:28.894Z,1.80
2022-07-30T19:50:27.114Z,1.70
2022-07-30T19:53:16.826Z,1.63
2022-07-30T19:56:08.285Z,1.95
2022-07-30T19:59:00.296Z,1.77
2022-07-30T20:01:47.835Z,1.88
2022-07-30T20:04:38.930Z,1.85
2022-07-30T20:07:27.537Z,1.80
2022-07-30T20:10:15.349Z,2.08
2022-07-30T20:13:02.353Z,2.10
2022-07-30T20:15:55.313Z,1.58
2022-07-30T20:18:46.661Z,1.92
2022-07-30T20:21:56.667Z,1.95
2022-07-30T20:24:44.906Z,2.40
2022-07-30T20:27:35.712Z,2.05
2022-07-30T20:30:25.327Z,2.05
2022-07-30T20:33:14.506Z,2.00
2022-07-30T20:36:01.674Z,2.17
2022-07-30T20:38:49.338Z,2.20
2022-07-30T20:41:39.494Z,1.90
2022-07-30T20:44:28.118Z,2.10
2022-07-30T20:47:17.954Z,1.90
2022-07-30T20:50:30.476Z,1.97
2022-07-30T20:53:18.082Z,2.07
2022-07-30T20:56:05.496Z,2.33
2022-07-30T20:58:52.659Z,2.07
2022-07-30T21:01:42.851Z,2.10
2022-07-30T21:04:30.490Z,2.40
2022-07-30T21:07:20.637Z,2.00
2022-07-30T21:10:08.774Z,2.17
2022-07-30T21:13:03.569Z,2.00
2022-07-30T21:16:02.659Z,2.00
2022-07-30T21:18:51.033Z,2.13
2022-07-30T21:21:47.990Z,2.43
2022-07-30T21:24:36.963Z,2.10
2022-07-30T21:27:24.315Z,2.57
2022-07-30T21:30:17.177Z,2.17
2022-07-30T21:33:04.742Z,2.50
2022-07-30T21:35:51.774Z,2.10
2022-07-30T21:38:42.004Z,2.27
2022-07-30T21:41:40.269Z,1.90
2022-07-30T21:44:27.880Z,2.00
2022-07-30T21:47:15.394Z,1.90
2022-07-30T21:50:03.001Z,2.57
2022-07-30T21:52:50.248Z,2.20
2022-07-30T21:55:52.817Z,2.00
2022-07-30T21:58:42.509Z,2.20
